地図

経路データ

SID SEASON NUMBER BASIN SUBBASIN NAME ISO_TIME NATURE LAT LON WMO_WIND WMO_PRES WMO_AGENCY TRACK_TYPE DIST2LAND LANDFALL IFLAG USA_AGENCY USA_ATCF_ID USA_LAT USA_LON USA_RECORD USA_STATUS USA_WIND USA_PRES USA_SSHS USA_R34_NE USA_R34_SE USA_R34_SW USA_R34_NW USA_R50_NE USA_R50_SE USA_R50_SW USA_R50_NW USA_R64_NE USA_R64_SE USA_R64_SW USA_R64_NW USA_POCI USA_ROCI USA_RMW USA_EYE TOKYO_LAT TOKYO_LON TOKYO_GRADE TOKYO_WIND TOKYO_PRES TOKYO_R50_DIR TOKYO_R50_LONG TOKYO_R50_SHORT TOKYO_R30_DIR TOKYO_R30_LONG TOKYO_R30_SHORT TOKYO_LAND CMA_LAT CMA_LON CMA_CAT CMA_WIND CMA_PRES HKO_LAT HKO_LON HKO_CAT HKO_WIND HKO_PRES NEWDELHI_LAT NEWDELHI_LON NEWDELHI_GRADE NEWDELHI_WIND NEWDELHI_PRES NEWDELHI_CI NEWDELHI_DP NEWDELHI_POCI REUNION_LAT REUNION_LON REUNION_TYPE REUNION_WIND REUNION_PRES REUNION_TNUM REUNION_CI REUNION_RMW REUNION_R34_NE REUNION_R34_SE REUNION_R34_SW REUNION_R34_NW REUNION_R50_NE REUNION_R50_SE REUNION_R50_SW REUNION_R50_NW REUNION_R64_NE REUNION_R64_SE REUNION_R64_SW REUNION_R64_NW BOM_LAT BOM_LON BOM_TYPE BOM_WIND BOM_PRES BOM_TNUM BOM_CI BOM_RMW BOM_R34_NE BOM_R34_SE BOM_R34_SW BOM_R34_NW BOM_R50_NE BOM_R50_SE BOM_R50_SW BOM_R50_NW BOM_R64_NE BOM_R64_SE BOM_R64_SW BOM_R64_NW BOM_ROCI BOM_POCI BOM_EYE BOM_POS_METHOD BOM_PRES_METHOD NADI_LAT NADI_LON NADI_CAT NADI_WIND NADI_PRES WELLINGTON_LAT WELLINGTON_LON WELLINGTON_WIND WELLINGTON_PRES DS824_LAT DS824_LON DS824_STAGE DS824_WIND DS824_PRES TD9636_LAT TD9636_LON TD9636_STAGE TD9636_WIND TD9636_PRES TD9635_LAT TD9635_LON TD9635_WIND TD9635_PRES TD9635_ROCI NEUMANN_LAT NEUMANN_LON NEUMANN_CLASS NEUMANN_WIND NEUMANN_PRES MLC_LAT MLC_LON MLC_CLASS MLC_WIND MLC_PRES USA_GUST BOM_GUST BOM_GUST_PER REUNION_GUST REUNION_GUST_PER USA_SEAHGT USA_SEARAD_NE USA_SEARAD_SE USA_SEARAD_SW USA_SEARAD_NW STORM_SPEED STORM_DIR
1953267N15282 1953 59 NA CS FLORENCE 1953-09-23 12:00:00 TS 15.0000 -78.0000 40 hurdat_atl main 314 278 O_____________ hurdat_atl AL091953 15.0000 -78.0000 TS 40 0 20 312
1953267N15282 1953 59 NA CS FLORENCE 1953-09-23 15:00:00 TS 15.6505 -78.7491 main 268 242 P_____________ AL091953 15.6505 -78.7491 TS 42 0 20 312
1953267N15282 1953 59 NA CS FLORENCE 1953-09-23 18:00:00 TS 16.3000 -79.5000 45 hurdat_atl main 242 230 O_____________ hurdat_atl AL091953 16.3000 -79.5000 TS 45 0 19 312
1953267N15282 1953 59 NA CS FLORENCE 1953-09-23 21:00:00 TS 16.9497 -80.2505 main 248 242 P_____________ AL091953 16.9497 -80.2505 TS 45 0 19 312
1953267N15282 1953 59 NA CS FLORENCE 1953-09-24 00:00:00 TS 17.6000 -81.0000 45 hurdat_atl main 283 283 O_____________ hurdat_atl AL091953 17.6000 -81.0000 TS 45 0 19 312
1953267N15282 1953 59 NA CS FLORENCE 1953-09-24 03:00:00 TS 18.2497 -81.7506 main 359 281 P_____________ AL091953 18.2497 -81.7506 TS 47 0 19 312
1953267N15282 1953 59 NA CS FLORENCE 1953-09-24 06:00:00 TS 18.9000 -82.5000 50 hurdat_atl main 281 214 O_____________ hurdat_atl AL091953 18.9000 -82.5000 TS 50 0 19 313
1953267N15282 1953 59 NA CS FLORENCE 1953-09-24 09:00:00 TS 19.5648 -83.2578 main 207 177 P_____________ AL091953 19.5648 -83.2578 TS 50 0 19 313
1953267N15282 1953 59 NA CS FLORENCE 1953-09-24 12:00:00 TS 20.2000 -84.0000 50 hurdat_atl main 178 123 O_____________ hurdat_atl AL091953 20.2000 -84.0000 TS 50 0 18 311
1953267N15282 1953 59 NA CS FLORENCE 1953-09-24 15:00:00 TS 20.7649 -84.7379 main 112 78 P_____________ AL091953 20.7649 -84.7379 TS 52 0 17 310
1953267N15282 1953 59 NA CS FLORENCE 1953-09-24 18:00:00 TS 21.3000 -85.4000 55 1001 hurdat_atl main 78 76 O_____________ hurdat_atl AL091953 21.3000 -85.4000 TS 55 1001 0 16 314
1953267N15282 1953 59 NA GM FLORENCE 1953-09-24 21:00:00 TS 21.8573 -85.9603 main 103 103 P_____________ AL091953 21.8573 -85.9603 TS 60 0 14 320
1953267N15282 1953 59 NA GM FLORENCE 1953-09-25 00:00:00 TS 22.4000 -86.4000 65 hurdat_atl main 118 118 O_____________ hurdat_atl AL091953 22.4000 -86.4000 HU 65 1 13 325
1953267N15282 1953 59 NA GM FLORENCE 1953-09-25 03:00:00 TS 22.8922 -86.7307 main 159 157 P_____________ AL091953 22.8922 -86.7307 HU 72 1 11 331
1953267N15282 1953 59 NA GM FLORENCE 1953-09-25 06:00:00 TS 23.4000 -87.0000 80 hurdat_atl main 212 212 O_____________ hurdat_atl AL091953 23.4000 -87.0000 HU 80 1 12 332
1953267N15282 1953 59 NA GM FLORENCE 1953-09-25 09:00:00 TS 23.9776 -87.3519 main 281 281 P_____________ AL091953 23.9776 -87.3519 HU 85 2 13 335
1953267N15282 1953 59 NA GM FLORENCE 1953-09-25 12:00:00 TS 24.6000 -87.6000 90 968 hurdat_atl main 346 346 O_____________ hurdat_atl AL091953 24.6000 -87.6000 HU 90 968 2 13 349
1953267N15282 1953 59 NA GM FLORENCE 1953-09-25 15:00:00 TS 25.2274 -87.6179 main 413 380 P_____________ AL091953 25.2274 -87.6179 HU 95 2 13 4
1953267N15282 1953 59 NA GM FLORENCE 1953-09-25 18:00:00 TS 25.9000 -87.5000 100 hurdat_atl main 380 315 O_____________ hurdat_atl AL091953 25.9000 -87.5000 HU 100 3 14 9
1953267N15282 1953 59 NA GM FLORENCE 1953-09-25 21:00:00 TS 26.6350 -87.3725 main 315 257 P_____________ AL091953 26.6350 -87.3725 HU 97 3 15 10
1953267N15282 1953 59 NA GM FLORENCE 1953-09-26 00:00:00 TS 27.4000 -87.2000 95 hurdat_atl main 257 222 O_____________ hurdat_atl AL091953 27.4000 -87.2000 HU 95 2 16 12
1953267N15282 1953 59 NA GM FLORENCE 1953-09-26 03:00:00 TS 28.1875 -87.0076 main 219 160 P_____________ AL091953 28.1875 -87.0076 HU 92 2 15 13
1953267N15282 1953 59 NA GM FLORENCE 1953-09-26 06:00:00 TS 28.9000 -86.8000 90 hurdat_atl main 160 111 O_____________ hurdat_atl AL091953 28.9000 -86.8000 HU 90 2 13 16
1953267N15282 1953 59 NA GM FLORENCE 1953-09-26 09:00:00 TS 29.4545 -86.5997 main 100 53 P_____________ AL091953 29.4545 -86.5997 HU 85 2 11 19
1953267N15282 1953 59 NA GM FLORENCE 1953-09-26 12:00:00 TS 29.9000 -86.4000 80 hurdat_atl main 53 9 O_____________ hurdat_atl AL091953 29.9000 -86.4000 HU 80 1 9 22
1953267N15282 1953 59 NA GM FLORENCE 1953-09-26 15:00:00 TS 30.3000 -86.2000 80 hurdat_atl main 9 0 O_____________ hurdat_atl AL091953 30.3000 -86.2000 L HU 80 1 8 18
1953267N15282 1953 59 NA NA FLORENCE 1953-09-26 18:00:00 TS 30.7000 -86.1000 70 hurdat_atl main 0 0 O_____________ hurdat_atl AL091953 30.7000 -86.1000 HU 70 1 7 22
1953267N15282 1953 59 NA NA FLORENCE 1953-09-26 21:00:00 TS 30.9078 -85.9078 main 0 0 P_____________ AL091953 30.9078 -85.9078 HU 60 0 5 55
1953267N15282 1953 59 NA NA FLORENCE 1953-09-27 00:00:00 TS 31.0000 -85.6000 50 hurdat_atl main 0 0 O_____________ hurdat_atl AL091953 31.0000 -85.6000 TS 50 0 6 72
1953267N15282 1953 59 NA NA FLORENCE 1953-09-27 03:00:00 TS 31.0919 -85.2319 main 0 0 P_____________ AL091953 31.0919 -85.2319 TS 45 0 8 75
1953267N15282 1953 59 NA NA FLORENCE 1953-09-27 06:00:00 ET 31.2000 -84.7000 40 hurdat_atl main 0 0 O_____________ hurdat_atl AL091953 31.2000 -84.7000 EX 40 -4 11 75
1953267N15282 1953 59 NA NA FLORENCE 1953-09-27 09:00:00 ET 31.3775 -83.9674 main 0 0 P_____________ AL091953 31.3775 -83.9674 EX 40 -4 14 74
1953267N15282 1953 59 NA NA FLORENCE 1953-09-27 12:00:00 ET 31.6000 -83.1000 40 hurdat_atl main 0 0 O_____________ hurdat_atl AL091953 31.6000 -83.1000 EX 40 -4 16 73
1953267N15282 1953 59 NA NA FLORENCE 1953-09-27 15:00:00 ET 31.8460 -82.2035 main 0 0 P_____________ AL091953 31.8460 -82.2035 EX 40 -4 16 72
1953267N15282 1953 59 NA NA FLORENCE 1953-09-27 18:00:00 ET 32.1000 -81.3000 40 hurdat_atl main 0 O_____________ hurdat_atl AL091953 32.1000 -81.3000 EX 40 -4 16 72

IBTrACS Databaseについて

本データベースは、米国NOAAが公開する1842年以降の世界の熱帯低気圧のベストトラックデータアーカイブInternational Best Track Archive for Climate Stewardship (IBTrACS)を、ウェブで閲覧しやすい形式に変換したものです。

最終更新日:2021-10-19